sensor_id;sensor_type;location;lat;lon;timestamp;P1;durP1;ratioP1;P2;durP2;ratioP2
50429;SDS011;36359;41.556;-8.418;2023-09-12T00:02:06;3.15;;;1.50;;
50429;SDS011;36359;41.556;-8.418;2023-09-12T00:04:32;7.03;;;2.95;;
50429;SDS011;36359;41.556;-8.418;2023-09-12T00:06:58;10.25;;;3.70;;
50429;SDS011;36359;41.556;-8.418;2023-09-12T00:09:23;7.07;;;3.45;;
50429;SDS011;36359;41.556;-8.418;2023-09-12T00:11:49;8.38;;;3.25;;
50429;SDS011;36359;41.556;-8.418;2023-09-12T00:14:15;9.07;;;4.10;;
50429;SDS011;36359;41.556;-8.418;2023-09-12T00:16:41;2.63;;;1.77;;
50429;SDS011;36359;41.556;-8.418;2023-09-12T00:19:07;6.25;;;3.80;;
50429;SDS011;36359;41.556;-8.418;2023-09-12T00:21:33;4.63;;;1.80;;
50429;SDS011;36359;41.556;-8.418;2023-09-12T00:23:59;2.95;;;1.63;;
50429;SDS011;36359;41.556;-8.418;2023-09-12T00:26:24;3.13;;;1.42;;
50429;SDS011;36359;41.556;-8.418;2023-09-12T00:28:50;6.95;;;3.97;;
50429;SDS011;36359;41.556;-8.418;2023-09-12T00:31:16;7.32;;;4.07;;
50429;SDS011;36359;41.556;-8.418;2023-09-12T00:33:42;5.93;;;3.08;;
50429;SDS011;36359;41.556;-8.418;2023-09-12T00:36:07;8.15;;;3.60;;
50429;SDS011;36359;41.556;-8.418;2023-09-12T00:38:33;3.35;;;1.92;;
50429;SDS011;36359;41.556;-8.418;2023-09-12T00:40:59;3.28;;;1.55;;
50429;SDS011;36359;41.556;-8.418;2023-09-12T00:43:24;2.78;;;1.50;;
50429;SDS011;36359;41.556;-8.418;2023-09-12T00:45:50;3.28;;;1.85;;
50429;SDS011;36359;41.556;-8.418;2023-09-12T00:48:16;7.28;;;3.70;;
50429;SDS011;36359;41.556;-8.418;2023-09-12T00:50:43;3.05;;;1.67;;
50429;SDS011;36359;41.556;-8.418;2023-09-12T00:53:13;3.47;;;1.65;;
50429;SDS011;36359;41.556;-8.418;2023-09-12T00:55:40;3.13;;;1.45;;
50429;SDS011;36359;41.556;-8.418;2023-09-12T00:58:11;7.20;;;5.05;;
50429;SDS011;36359;41.556;-8.418;2023-09-12T01:00:40;10.63;;;5.93;;
50429;SDS011;36359;41.556;-8.418;2023-09-12T01:03:06;12.27;;;6.43;;
50429;SDS011;36359;41.556;-8.418;2023-09-12T01:05:32;9.18;;;5.63;;
50429;SDS011;36359;41.556;-8.418;2023-09-12T01:07:59;9.98;;;5.68;;
50429;SDS011;36359;41.556;-8.418;2023-09-12T01:10:25;3.55;;;1.85;;
50429;SDS011;36359;41.556;-8.418;2023-09-12T01:12:51;4.93;;;2.67;;
50429;SDS011;36359;41.556;-8.418;2023-09-12T01:15:17;6.93;;;4.50;;
50429;SDS011;36359;41.556;-8.418;2023-09-12T01:17:43;9.90;;;4.53;;
50429;SDS011;36359;41.556;-8.418;2023-09-12T01:20:16;7.30;;;4.75;;
50429;SDS011;36359;41.556;-8.418;2023-09-12T01:22:56;3.45;;;1.85;;
50429;SDS011;36359;41.556;-8.418;2023-09-12T01:25:39;3.55;;;2.10;;
50429;SDS011;36359;41.556;-8.418;2023-09-12T01:28:12;7.35;;;4.18;;
50429;SDS011;36359;41.556;-8.418;2023-09-12T01:30:41;7.57;;;4.35;;
50429;SDS011;36359;41.556;-8.418;2023-09-12T01:33:11;9.70;;;5.00;;
50429;SDS011;36359;41.556;-8.418;2023-09-12T01:35:36;7.45;;;5.20;;
50429;SDS011;36359;41.556;-8.418;2023-09-12T01:38:02;7.82;;;4.82;;
50429;SDS011;36359;41.556;-8.418;2023-09-12T01:40:33;7.30;;;3.92;;
50429;SDS011;36359;41.556;-8.418;2023-09-12T01:43:05;7.53;;;3.90;;
50429;SDS011;36359;41.556;-8.418;2023-09-12T01:45:32;5.30;;;3.00;;
50429;SDS011;36359;41.556;-8.418;2023-09-12T01:47:58;3.58;;;1.80;;
50429;SDS011;36359;41.556;-8.418;2023-09-12T01:50:26;5.07;;;2.13;;
50429;SDS011;36359;41.556;-8.418;2023-09-12T01:52:53;3.63;;;2.30;;
50429;SDS011;36359;41.556;-8.418;2023-09-12T01:55:20;4.00;;;2.10;;
50429;SDS011;36359;41.556;-8.418;2023-09-12T01:57:47;2.92;;;2.17;;
50429;SDS011;36359;41.556;-8.418;2023-09-12T02:00:13;4.55;;;2.10;;
50429;SDS011;36359;41.556;-8.418;2023-09-12T02:02:39;8.82;;;4.43;;
50429;SDS011;36359;41.556;-8.418;2023-09-12T02:05:15;6.18;;;2.75;;
50429;SDS011;36359;41.556;-8.418;2023-09-12T02:07:44;3.50;;;2.00;;
50429;SDS011;36359;41.556;-8.418;2023-09-12T02:10:10;3.10;;;1.73;;
50429;SDS011;36359;41.556;-8.418;2023-09-12T02:12:37;6.10;;;4.05;;
50429;SDS011;36359;41.556;-8.418;2023-09-12T02:15:03;4.47;;;1.52;;
50429;SDS011;36359;41.556;-8.418;2023-09-12T02:17:30;5.78;;;3.92;;
50429;SDS011;36359;41.556;-8.418;2023-09-12T02:19:55;8.48;;;4.05;;
50429;SDS011;36359;41.556;-8.418;2023-09-12T02:22:21;4.05;;;2.53;;
50429;SDS011;36359;41.556;-8.418;2023-09-12T02:24:47;3.95;;;2.03;;
50429;SDS011;36359;41.556;-8.418;2023-09-12T02:27:14;6.65;;;3.58;;
50429;SDS011;36359;41.556;-8.418;2023-09-12T02:29:40;6.43;;;2.65;;
50429;SDS011;36359;41.556;-8.418;2023-09-12T02:32:07;6.22;;;4.63;;
50429;SDS011;36359;41.556;-8.418;2023-09-12T02:34:33;9.52;;;4.78;;
50429;SDS011;36359;41.556;-8.418;2023-09-12T02:36:59;7.30;;;4.95;;
50429;SDS011;36359;41.556;-8.418;2023-09-12T02:39:25;9.48;;;6.13;;
50429;SDS011;36359;41.556;-8.418;2023-09-12T02:41:51;7.85;;;6.63;;
50429;SDS011;36359;41.556;-8.418;2023-09-12T02:44:17;9.13;;;5.97;;
50429;SDS011;36359;41.556;-8.418;2023-09-12T02:46:42;10.93;;;7.05;;
50429;SDS011;36359;41.556;-8.418;2023-09-12T02:49:08;9.32;;;6.32;;
50429;SDS011;36359;41.556;-8.418;2023-09-12T02:51:37;7.63;;;4.95;;
50429;SDS011;36359;41.556;-8.418;2023-09-12T02:54:04;8.40;;;5.90;;
50429;SDS011;36359;41.556;-8.418;2023-09-12T02:56:30;7.78;;;5.78;;
50429;SDS011;36359;41.556;-8.418;2023-09-12T02:58:56;10.23;;;5.32;;
50429;SDS011;36359;41.556;-8.418;2023-09-12T03:01:24;10.82;;;5.70;;
50429;SDS011;36359;41.556;-8.418;2023-09-12T03:03:53;9.75;;;5.65;;
50429;SDS011;36359;41.556;-8.418;2023-09-12T03:06:19;5.50;;;3.60;;
50429;SDS011;36359;41.556;-8.418;2023-09-12T03:08:45;4.90;;;2.90;;
50429;SDS011;36359;41.556;-8.418;2023-09-12T03:11:12;5.20;;;2.97;;
50429;SDS011;36359;41.556;-8.418;2023-09-12T03:13:39;6.20;;;2.65;;
50429;SDS011;36359;41.556;-8.418;2023-09-12T03:16:13;4.97;;;2.55;;
50429;SDS011;36359;41.556;-8.418;2023-09-12T03:18:39;6.63;;;4.15;;
50429;SDS011;36359;41.556;-8.418;2023-09-12T03:21:05;7.68;;;2.97;;
50429;SDS011;36359;41.556;-8.418;2023-09-12T03:23:32;10.50;;;5.70;;
50429;SDS011;36359;41.556;-8.418;2023-09-12T03:26:04;6.68;;;5.45;;
50429;SDS011;36359;41.556;-8.418;2023-09-12T03:28:32;9.52;;;6.15;;
50429;SDS011;36359;41.556;-8.418;2023-09-12T03:31:08;9.23;;;5.97;;
50429;SDS011;36359;41.556;-8.418;2023-09-12T03:33:39;8.13;;;4.95;;
50429;SDS011;36359;41.556;-8.418;2023-09-12T03:36:06;9.68;;;6.20;;
50429;SDS011;36359;41.556;-8.418;2023-09-12T03:38:33;8.40;;;5.68;;
50429;SDS011;36359;41.556;-8.418;2023-09-12T03:40:59;9.57;;;5.57;;
50429;SDS011;36359;41.556;-8.418;2023-09-12T03:43:26;7.97;;;5.07;;
50429;SDS011;36359;41.556;-8.418;2023-09-12T03:45:52;4.93;;;3.13;;
50429;SDS011;36359;41.556;-8.418;2023-09-12T03:48:19;7.47;;;4.32;;
50429;SDS011;36359;41.556;-8.418;2023-09-12T03:50:45;11.60;;;4.72;;
50429;SDS011;36359;41.556;-8.418;2023-09-12T03:53:11;5.95;;;3.40;;
50429;SDS011;36359;41.556;-8.418;2023-09-12T03:55:38;8.30;;;3.83;;
50429;SDS011;36359;41.556;-8.418;2023-09-12T03:58:04;7.68;;;3.17;;
50429;SDS011;36359;41.556;-8.418;2023-09-12T04:00:30;5.93;;;4.30;;
50429;SDS011;36359;41.556;-8.418;2023-09-12T04:02:55;8.07;;;4.25;;
50429;SDS011;36359;41.556;-8.418;2023-09-12T04:05:22;9.93;;;4.90;;
50429;SDS011;36359;41.556;-8.418;2023-09-12T04:07:47;11.80;;;5.68;;
50429;SDS011;36359;41.556;-8.418;2023-09-12T04:10:14;12.95;;;5.78;;
50429;SDS011;36359;41.556;-8.418;2023-09-12T04:12:39;7.63;;;4.85;;
50429;SDS011;36359;41.556;-8.418;2023-09-12T04:15:05;8.85;;;5.20;;
50429;SDS011;36359;41.556;-8.418;2023-09-12T04:17:31;8.63;;;5.80;;
50429;SDS011;36359;41.556;-8.418;2023-09-12T04:19:57;7.50;;;4.55;;
50429;SDS011;36359;41.556;-8.418;2023-09-12T04:22:23;8.07;;;4.47;;
50429;SDS011;36359;41.556;-8.418;2023-09-12T04:24:49;7.18;;;4.32;;
50429;SDS011;36359;41.556;-8.418;2023-09-12T04:27:15;7.65;;;3.90;;
50429;SDS011;36359;41.556;-8.418;2023-09-12T04:29:40;6.70;;;3.38;;
50429;SDS011;36359;41.556;-8.418;2023-09-12T04:32:06;7.40;;;3.20;;
50429;SDS011;36359;41.556;-8.418;2023-09-12T04:34:32;5.30;;;2.60;;
50429;SDS011;36359;41.556;-8.418;2023-09-12T04:36:58;4.15;;;2.33;;
50429;SDS011;36359;41.556;-8.418;2023-09-12T04:39:24;5.97;;;3.13;;
50429;SDS011;36359;41.556;-8.418;2023-09-12T04:41:51;4.43;;;2.50;;
50429;SDS011;36359;41.556;-8.418;2023-09-12T04:44:16;4.80;;;2.70;;
50429;SDS011;36359;41.556;-8.418;2023-09-12T04:46:42;6.75;;;3.53;;
50429;SDS011;36359;41.556;-8.418;2023-09-12T04:49:08;2.80;;;2.30;;
50429;SDS011;36359;41.556;-8.418;2023-09-12T04:51:34;6.47;;;2.55;;
50429;SDS011;36359;41.556;-8.418;2023-09-12T04:54:00;6.97;;;3.40;;
50429;SDS011;36359;41.556;-8.418;2023-09-12T04:56:26;8.75;;;3.50;;
50429;SDS011;36359;41.556;-8.418;2023-09-12T04:58:51;10.95;;;4.85;;
50429;SDS011;36359;41.556;-8.418;2023-09-12T05:01:17;10.07;;;4.75;;
50429;SDS011;36359;41.556;-8.418;2023-09-12T05:03:43;12.45;;;5.53;;
50429;SDS011;36359;41.556;-8.418;2023-09-12T05:06:09;9.93;;;5.70;;
50429;SDS011;36359;41.556;-8.418;2023-09-12T05:08:36;10.05;;;4.72;;
50429;SDS011;36359;41.556;-8.418;2023-09-12T05:11:02;5.95;;;4.03;;
50429;SDS011;36359;41.556;-8.418;2023-09-12T05:13:30;5.32;;;2.60;;
50429;SDS011;36359;41.556;-8.418;2023-09-12T05:15:56;6.30;;;2.92;;
50429;SDS011;36359;41.556;-8.418;2023-09-12T05:18:23;13.25;;;4.10;;
50429;SDS011;36359;41.556;-8.418;2023-09-12T05:20:49;8.85;;;3.80;;
50429;SDS011;36359;41.556;-8.418;2023-09-12T05:23:15;8.07;;;2.85;;
50429;SDS011;36359;41.556;-8.418;2023-09-12T05:25:41;11.77;;;4.13;;
50429;SDS011;36359;41.556;-8.418;2023-09-12T05:28:06;3.53;;;2.42;;
50429;SDS011;36359;41.556;-8.418;2023-09-12T05:30:32;4.47;;;2.65;;
50429;SDS011;36359;41.556;-8.418;2023-09-12T05:32:58;7.40;;;3.78;;
50429;SDS011;36359;41.556;-8.418;2023-09-12T05:35:24;9.52;;;3.95;;
50429;SDS011;36359;41.556;-8.418;2023-09-12T05:37:51;5.28;;;3.35;;
50429;SDS011;36359;41.556;-8.418;2023-09-12T05:40:17;4.97;;;2.60;;
50429;SDS011;36359;41.556;-8.418;2023-09-12T05:42:43;8.68;;;4.22;;
50429;SDS011;36359;41.556;-8.418;2023-09-12T05:45:09;11.73;;;4.90;;
50429;SDS011;36359;41.556;-8.418;2023-09-12T05:47:35;9.93;;;5.03;;
50429;SDS011;36359;41.556;-8.418;2023-09-12T05:50:01;9.52;;;5.13;;
50429;SDS011;36359;41.556;-8.418;2023-09-12T05:52:31;10.97;;;5.40;;
50429;SDS011;36359;41.556;-8.418;2023-09-12T05:54:56;8.38;;;4.78;;
50429;SDS011;36359;41.556;-8.418;2023-09-12T05:57:22;12.82;;;5.03;;
50429;SDS011;36359;41.556;-8.418;2023-09-12T05:59:49;13.70;;;5.68;;
50429;SDS011;36359;41.556;-8.418;2023-09-12T06:02:15;12.93;;;5.50;;
50429;SDS011;36359;41.556;-8.418;2023-09-12T06:04:40;13.00;;;7.40;;
50429;SDS011;36359;41.556;-8.418;2023-09-12T06:07:06;8.60;;;3.92;;
50429;SDS011;36359;41.556;-8.418;2023-09-12T06:09:32;15.23;;;6.75;;
50429;SDS011;36359;41.556;-8.418;2023-09-12T06:12:01;16.45;;;6.22;;
50429;SDS011;36359;41.556;-8.418;2023-09-12T06:14:27;16.25;;;5.60;;
50429;SDS011;36359;41.556;-8.418;2023-09-12T06:16:53;13.63;;;6.18;;
50429;SDS011;36359;41.556;-8.418;2023-09-12T06:19:18;11.05;;;6.03;;
50429;SDS011;36359;41.556;-8.418;2023-09-12T06:21:45;10.00;;;4.70;;
50429;SDS011;36359;41.556;-8.418;2023-09-12T06:24:18;13.10;;;4.30;;
50429;SDS011;36359;41.556;-8.418;2023-09-12T06:26:46;7.82;;;4.10;;
50429;SDS011;36359;41.556;-8.418;2023-09-12T06:29:13;8.20;;;3.55;;
50429;SDS011;36359;41.556;-8.418;2023-09-12T06:31:39;9.23;;;4.07;;
50429;SDS011;36359;41.556;-8.418;2023-09-12T06:34:06;11.18;;;3.85;;
50429;SDS011;36359;41.556;-8.418;2023-09-12T06:36:33;10.07;;;4.32;;
50429;SDS011;36359;41.556;-8.418;2023-09-12T06:38:59;8.52;;;4.55;;
50429;SDS011;36359;41.556;-8.418;2023-09-12T06:41:25;8.18;;;4.68;;
50429;SDS011;36359;41.556;-8.418;2023-09-12T06:43:52;9.40;;;4.60;;
50429;SDS011;36359;41.556;-8.418;2023-09-12T06:46:18;15.27;;;5.00;;
50429;SDS011;36359;41.556;-8.418;2023-09-12T06:48:47;12.52;;;4.93;;
50429;SDS011;36359;41.556;-8.418;2023-09-12T06:51:14;17.20;;;4.35;;
50429;SDS011;36359;41.556;-8.418;2023-09-12T06:53:40;10.15;;;4.43;;
50429;SDS011;36359;41.556;-8.418;2023-09-12T06:56:05;13.70;;;6.78;;
50429;SDS011;36359;41.556;-8.418;2023-09-12T06:58:31;5.65;;;3.20;;
50429;SDS011;36359;41.556;-8.418;2023-09-12T07:01:04;5.97;;;2.60;;
50429;SDS011;36359;41.556;-8.418;2023-09-12T07:03:31;9.32;;;4.32;;
50429;SDS011;36359;41.556;-8.418;2023-09-12T07:06:01;8.82;;;4.90;;
50429;SDS011;36359;41.556;-8.418;2023-09-12T07:08:29;8.40;;;5.00;;
50429;SDS011;36359;41.556;-8.418;2023-09-12T07:10:55;9.20;;;4.82;;
50429;SDS011;36359;41.556;-8.418;2023-09-12T07:13:22;7.70;;;4.85;;
50429;SDS011;36359;41.556;-8.418;2023-09-12T07:15:52;9.93;;;5.22;;
50429;SDS011;36359;41.556;-8.418;2023-09-12T07:18:36;10.50;;;5.82;;
50429;SDS011;36359;41.556;-8.418;2023-09-12T07:21:20;9.38;;;4.78;;
50429;SDS011;36359;41.556;-8.418;2023-09-12T07:24:04;9.85;;;5.22;;
50429;SDS011;36359;41.556;-8.418;2023-09-12T07:26:49;7.65;;;5.18;;
50429;SDS011;36359;41.556;-8.418;2023-09-12T07:29:33;7.88;;;5.25;;
50429;SDS011;36359;41.556;-8.418;2023-09-12T07:32:17;7.78;;;5.75;;
50429;SDS011;36359;41.556;-8.418;2023-09-12T07:35:02;6.50;;;4.95;;
50429;SDS011;36359;41.556;-8.418;2023-09-12T07:37:46;6.80;;;4.45;;
50429;SDS011;36359;41.556;-8.418;2023-09-12T07:40:38;9.48;;;4.70;;
50429;SDS011;36359;41.556;-8.418;2023-09-12T07:51:16;4.40;;;2.65;;
50429;SDS011;36359;41.556;-8.418;2023-09-12T07:54:35;4.60;;;2.47;;
50429;SDS011;36359;41.556;-8.418;2023-09-12T07:57:38;4.32;;;2.92;;
50429;SDS011;36359;41.556;-8.418;2023-09-12T08:00:22;3.88;;;2.95;;
50429;SDS011;36359;41.556;-8.418;2023-09-12T08:06:42;7.43;;;3.63;;
50429;SDS011;36359;41.556;-8.418;2023-09-12T08:09:09;6.45;;;2.20;;
50429;SDS011;36359;41.556;-8.418;2023-09-12T08:11:35;6.18;;;3.47;;
50429;SDS011;36359;41.556;-8.418;2023-09-12T08:14:01;5.85;;;4.00;;
50429;SDS011;36359;41.556;-8.418;2023-09-12T08:16:27;6.22;;;1.98;;
50429;SDS011;36359;41.556;-8.418;2023-09-12T08:18:52;3.25;;;2.20;;
50429;SDS011;36359;41.556;-8.418;2023-09-12T08:21:18;6.72;;;2.38;;
50429;SDS011;36359;41.556;-8.418;2023-09-12T08:23:43;4.28;;;2.80;;
50429;SDS011;36359;41.556;-8.418;2023-09-12T08:26:10;4.90;;;2.13;;
50429;SDS011;36359;41.556;-8.418;2023-09-12T08:28:35;3.70;;;2.03;;
50429;SDS011;36359;41.556;-8.418;2023-09-12T08:31:01;3.95;;;1.90;;
50429;SDS011;36359;41.556;-8.418;2023-09-12T08:33:27;5.85;;;2.72;;
50429;SDS011;36359;41.556;-8.418;2023-09-12T08:35:53;5.50;;;2.83;;
50429;SDS011;36359;41.556;-8.418;2023-09-12T08:38:51;5.47;;;2.78;;
50429;SDS011;36359;41.556;-8.418;2023-09-12T08:41:50;7.35;;;3.30;;
50429;SDS011;36359;41.556;-8.418;2023-09-12T09:02:28;6.63;;;3.47;;
50429;SDS011;36359;41.556;-8.418;2023-09-12T09:05:58;7.65;;;3.70;;
50429;SDS011;36359;41.556;-8.418;2023-09-12T09:08:26;5.72;;;3.60;;
50429;SDS011;36359;41.556;-8.418;2023-09-12T09:10:57;23.63;;;4.22;;
50429;SDS011;36359;41.556;-8.418;2023-09-12T09:13:24;25.17;;;4.43;;
50429;SDS011;36359;41.556;-8.418;2023-09-12T09:19:00;24.95;;;4.40;;
50429;SDS011;36359;41.556;-8.418;2023-09-12T09:21:28;133.60;;;15.50;;
50429;SDS011;36359;41.556;-8.418;2023-09-12T09:23:58;180.68;;;18.13;;
50429;SDS011;36359;41.556;-8.418;2023-09-12T09:26:25;107.47;;;10.52;;
50429;SDS011;36359;41.556;-8.418;2023-09-12T09:29:07;67.82;;;8.90;;
50429;SDS011;36359;41.556;-8.418;2023-09-12T09:31:34;7.65;;;3.60;;
50429;SDS011;36359;41.556;-8.418;2023-09-12T09:34:00;25.95;;;4.50;;
50429;SDS011;36359;41.556;-8.418;2023-09-12T09:36:31;6.50;;;3.80;;
50429;SDS011;36359;41.556;-8.418;2023-09-12T09:38:58;8.73;;;3.97;;
50429;SDS011;36359;41.556;-8.418;2023-09-12T09:41:24;8.13;;;4.15;;
50429;SDS011;36359;41.556;-8.418;2023-09-12T09:43:51;12.63;;;3.67;;
50429;SDS011;36359;41.556;-8.418;2023-09-12T09:46:17;7.30;;;3.75;;
50429;SDS011;36359;41.556;-8.418;2023-09-12T09:48:50;6.60;;;3.42;;
50429;SDS011;36359;41.556;-8.418;2023-09-12T09:51:16;6.75;;;3.70;;
50429;SDS011;36359;41.556;-8.418;2023-09-12T09:53:42;9.70;;;3.45;;
50429;SDS011;36359;41.556;-8.418;2023-09-12T09:56:09;12.75;;;3.45;;
50429;SDS011;36359;41.556;-8.418;2023-09-12T09:58:50;6.95;;;3.70;;
50429;SDS011;36359;41.556;-8.418;2023-09-12T10:01:21;8.10;;;4.22;;
50429;SDS011;36359;41.556;-8.418;2023-09-12T10:03:50;12.65;;;3.22;;
50429;SDS011;36359;41.556;-8.418;2023-09-12T10:06:17;5.82;;;3.40;;
50429;SDS011;36359;41.556;-8.418;2023-09-12T10:08:44;11.20;;;4.18;;
50429;SDS011;36359;41.556;-8.418;2023-09-12T10:11:14;7.55;;;4.00;;
50429;SDS011;36359;41.556;-8.418;2023-09-12T10:13:43;8.32;;;3.75;;
50429;SDS011;36359;41.556;-8.418;2023-09-12T10:16:16;7.07;;;4.50;;
50429;SDS011;36359;41.556;-8.418;2023-09-12T10:18:45;9.93;;;4.05;;
50429;SDS011;36359;41.556;-8.418;2023-09-12T10:21:19;8.77;;;4.88;;
50429;SDS011;36359;41.556;-8.418;2023-09-12T10:23:49;8.93;;;4.43;;
50429;SDS011;36359;41.556;-8.418;2023-09-12T10:26:16;6.63;;;3.78;;
50429;SDS011;36359;41.556;-8.418;2023-09-12T10:28:42;8.35;;;4.20;;
50429;SDS011;36359;41.556;-8.418;2023-09-12T10:31:12;6.57;;;3.83;;
50429;SDS011;36359;41.556;-8.418;2023-09-12T10:33:39;9.00;;;3.30;;
50429;SDS011;36359;41.556;-8.418;2023-09-12T10:36:05;11.05;;;3.10;;
50429;SDS011;36359;41.556;-8.418;2023-09-12T10:38:34;10.65;;;3.60;;
50429;SDS011;36359;41.556;-8.418;2023-09-12T10:41:05;8.32;;;2.95;;
50429;SDS011;36359;41.556;-8.418;2023-09-12T10:43:35;8.02;;;3.08;;
50429;SDS011;36359;41.556;-8.418;2023-09-12T10:46:01;7.13;;;2.58;;
50429;SDS011;36359;41.556;-8.418;2023-09-12T10:48:29;6.03;;;3.20;;
50429;SDS011;36359;41.556;-8.418;2023-09-12T10:50:59;8.20;;;2.92;;
50429;SDS011;36359;41.556;-8.418;2023-09-12T10:53:29;6.80;;;2.83;;
50429;SDS011;36359;41.556;-8.418;2023-09-12T10:56:14;7.03;;;2.78;;
50429;SDS011;36359;41.556;-8.418;2023-09-12T11:01:29;7.63;;;3.17;;
50429;SDS011;36359;41.556;-8.418;2023-09-12T11:03:56;10.98;;;3.83;;
50429;SDS011;36359;41.556;-8.418;2023-09-12T11:06:24;7.88;;;3.90;;
50429;SDS011;36359;41.556;-8.418;2023-09-12T11:11:39;7.00;;;3.45;;
50429;SDS011;36359;41.556;-8.418;2023-09-12T11:14:26;4.82;;;3.15;;
50429;SDS011;36359;41.556;-8.418;2023-09-12T11:19:51;4.55;;;2.80;;
50429;SDS011;36359;41.556;-8.418;2023-09-12T11:22:22;4.38;;;3.17;;
50429;SDS011;36359;41.556;-8.418;2023-09-12T11:24:52;7.90;;;3.05;;
50429;SDS011;36359;41.556;-8.418;2023-09-12T11:27:20;4.13;;;2.45;;
50429;SDS011;36359;41.556;-8.418;2023-09-12T11:29:46;3.78;;;2.28;;
50429;SDS011;36359;41.556;-8.418;2023-09-12T11:32:24;10.45;;;2.63;;
50429;SDS011;36359;41.556;-8.418;2023-09-12T11:34:52;5.70;;;2.75;;
50429;SDS011;36359;41.556;-8.418;2023-09-12T11:37:27;4.97;;;2.85;;
50429;SDS011;36359;41.556;-8.418;2023-09-12T11:39:54;5.05;;;2.30;;
50429;SDS011;36359;41.556;-8.418;2023-09-12T11:42:20;4.22;;;2.40;;
50429;SDS011;36359;41.556;-8.418;2023-09-12T11:47:17;5.00;;;2.50;;
50429;SDS011;36359;41.556;-8.418;2023-09-12T11:49:43;8.52;;;2.70;;
50429;SDS011;36359;41.556;-8.418;2023-09-12T11:52:09;5.80;;;2.63;;
50429;SDS011;36359;41.556;-8.418;2023-09-12T11:54:40;4.65;;;2.65;;
50429;SDS011;36359;41.556;-8.418;2023-09-12T11:57:09;5.50;;;3.13;;
50429;SDS011;36359;41.556;-8.418;2023-09-12T11:59:37;4.57;;;2.42;;
50429;SDS011;36359;41.556;-8.418;2023-09-12T12:02:08;4.55;;;2.72;;
50429;SDS011;36359;41.556;-8.418;2023-09-12T12:07:02;6.68;;;2.40;;
50429;SDS011;36359;41.556;-8.418;2023-09-12T12:09:31;3.20;;;1.85;;
50429;SDS011;36359;41.556;-8.418;2023-09-12T12:12:03;3.40;;;2.42;;
50429;SDS011;36359;41.556;-8.418;2023-09-12T12:14:36;6.53;;;2.25;;
50429;SDS011;36359;41.556;-8.418;2023-09-12T12:17:05;5.75;;;2.35;;
50429;SDS011;36359;41.556;-8.418;2023-09-12T12:19:33;10.25;;;2.92;;
50429;SDS011;36359;41.556;-8.418;2023-09-12T12:21:58;2.95;;;2.10;;
50429;SDS011;36359;41.556;-8.418;2023-09-12T12:24:24;3.95;;;2.35;;
50429;SDS011;36359;41.556;-8.418;2023-09-12T12:26:49;3.72;;;2.30;;
50429;SDS011;36359;41.556;-8.418;2023-09-12T12:29:15;3.63;;;2.28;;
50429;SDS011;36359;41.556;-8.418;2023-09-12T12:31:41;7.38;;;3.00;;
50429;SDS011;36359;41.556;-8.418;2023-09-12T12:34:07;8.65;;;2.90;;
50429;SDS011;36359;41.556;-8.418;2023-09-12T12:36:32;6.57;;;2.30;;
50429;SDS011;36359;41.556;-8.418;2023-09-12T12:38:58;5.20;;;2.35;;
50429;SDS011;36359;41.556;-8.418;2023-09-12T12:41:25;4.40;;;2.45;;
50429;SDS011;36359;41.556;-8.418;2023-09-12T12:43:56;7.00;;;2.47;;
50429;SDS011;36359;41.556;-8.418;2023-09-12T12:46:24;4.28;;;2.40;;
50429;SDS011;36359;41.556;-8.418;2023-09-12T12:48:50;5.70;;;2.25;;
50429;SDS011;36359;41.556;-8.418;2023-09-12T12:51:23;4.63;;;2.38;;
50429;SDS011;36359;41.556;-8.418;2023-09-12T12:53:51;5.65;;;2.00;;
50429;SDS011;36359;41.556;-8.418;2023-09-12T12:56:26;7.43;;;2.47;;
50429;SDS011;36359;41.556;-8.418;2023-09-12T12:58:57;4.57;;;2.03;;
50429;SDS011;36359;41.556;-8.418;2023-09-12T13:01:28;4.93;;;2.28;;
50429;SDS011;36359;41.556;-8.418;2023-09-12T13:03:54;3.38;;;2.40;;
50429;SDS011;36359;41.556;-8.418;2023-09-12T13:06:22;3.28;;;2.00;;
50429;SDS011;36359;41.556;-8.418;2023-09-12T13:08:48;4.72;;;2.15;;
50429;SDS011;36359;41.556;-8.418;2023-09-12T13:11:15;4.43;;;1.90;;
50429;SDS011;36359;41.556;-8.418;2023-09-12T13:13:41;5.70;;;2.22;;
50429;SDS011;36359;41.556;-8.418;2023-09-12T13:16:09;5.10;;;2.38;;
50429;SDS011;36359;41.556;-8.418;2023-09-12T13:18:36;3.92;;;1.90;;
50429;SDS011;36359;41.556;-8.418;2023-09-12T13:21:03;2.92;;;1.90;;
50429;SDS011;36359;41.556;-8.418;2023-09-12T13:23:29;2.65;;;1.50;;
50429;SDS011;36359;41.556;-8.418;2023-09-12T13:25:55;6.03;;;2.33;;
50429;SDS011;36359;41.556;-8.418;2023-09-12T13:28:22;3.88;;;1.95;;
50429;SDS011;36359;41.556;-8.418;2023-09-12T13:30:51;3.15;;;2.05;;
50429;SDS011;36359;41.556;-8.418;2023-09-12T13:33:20;9.82;;;2.85;;
50429;SDS011;36359;41.556;-8.418;2023-09-12T13:35:49;6.38;;;2.42;;
50429;SDS011;36359;41.556;-8.418;2023-09-12T13:38:15;8.18;;;2.00;;
50429;SDS011;36359;41.556;-8.418;2023-09-12T13:40:48;3.28;;;2.05;;
50429;SDS011;36359;41.556;-8.418;2023-09-12T13:43:13;4.18;;;2.30;;
50429;SDS011;36359;41.556;-8.418;2023-09-12T13:45:40;4.57;;;2.10;;
50429;SDS011;36359;41.556;-8.418;2023-09-12T13:48:08;7.90;;;1.55;;
50429;SDS011;36359;41.556;-8.418;2023-09-12T13:50:34;4.15;;;1.88;;
50429;SDS011;36359;41.556;-8.418;2023-09-12T13:53:01;3.78;;;2.00;;
50429;SDS011;36359;41.556;-8.418;2023-09-12T13:55:34;6.80;;;2.25;;
50429;SDS011;36359;41.556;-8.418;2023-09-12T13:58:01;5.25;;;2.60;;
50429;SDS011;36359;41.556;-8.418;2023-09-12T14:00:31;6.53;;;2.63;;
50429;SDS011;36359;41.556;-8.418;2023-09-12T14:02:57;4.55;;;2.33;;
50429;SDS011;36359;41.556;-8.418;2023-09-12T14:05:23;3.58;;;2.33;;
50429;SDS011;36359;41.556;-8.418;2023-09-12T14:07:49;3.38;;;2.10;;
50429;SDS011;36359;41.556;-8.418;2023-09-12T14:10:16;4.20;;;2.10;;
50429;SDS011;36359;41.556;-8.418;2023-09-12T14:12:42;3.35;;;2.33;;
50429;SDS011;36359;41.556;-8.418;2023-09-12T14:15:09;6.75;;;3.08;;
50429;SDS011;36359;41.556;-8.418;2023-09-12T14:17:37;4.53;;;2.90;;
50429;SDS011;36359;41.556;-8.418;2023-09-12T14:20:03;4.93;;;2.38;;
50429;SDS011;36359;41.556;-8.418;2023-09-12T14:22:29;6.75;;;3.58;;
50429;SDS011;36359;41.556;-8.418;2023-09-12T14:24:55;7.40;;;3.20;;
50429;SDS011;36359;41.556;-8.418;2023-09-12T14:27:20;11.55;;;3.80;;
50429;SDS011;36359;41.556;-8.418;2023-09-12T14:29:46;7.13;;;3.83;;
50429;SDS011;36359;41.556;-8.418;2023-09-12T14:32:14;6.45;;;3.25;;
50429;SDS011;36359;41.556;-8.418;2023-09-12T14:34:40;6.47;;;3.22;;
50429;SDS011;36359;41.556;-8.418;2023-09-12T14:37:06;6.40;;;4.05;;
50429;SDS011;36359;41.556;-8.418;2023-09-12T14:39:33;6.53;;;3.90;;
50429;SDS011;36359;41.556;-8.418;2023-09-12T14:41:58;6.40;;;3.58;;
50429;SDS011;36359;41.556;-8.418;2023-09-12T14:44:26;8.20;;;3.13;;
50429;SDS011;36359;41.556;-8.418;2023-09-12T14:46:53;6.55;;;3.53;;
50429;SDS011;36359;41.556;-8.418;2023-09-12T14:49:19;6.88;;;2.95;;
50429;SDS011;36359;41.556;-8.418;2023-09-12T14:51:45;5.85;;;3.20;;
50429;SDS011;36359;41.556;-8.418;2023-09-12T14:54:11;5.05;;;3.35;;
50429;SDS011;36359;41.556;-8.418;2023-09-12T14:56:37;7.05;;;4.28;;
50429;SDS011;36359;41.556;-8.418;2023-09-12T14:59:03;6.13;;;4.20;;
50429;SDS011;36359;41.556;-8.418;2023-09-12T15:01:30;7.38;;;3.42;;
50429;SDS011;36359;41.556;-8.418;2023-09-12T15:03:56;5.88;;;4.03;;
50429;SDS011;36359;41.556;-8.418;2023-09-12T15:06:22;7.72;;;4.25;;
50429;SDS011;36359;41.556;-8.418;2023-09-12T15:08:49;8.40;;;3.67;;
50429;SDS011;36359;41.556;-8.418;2023-09-12T15:11:15;6.18;;;4.07;;
50429;SDS011;36359;41.556;-8.418;2023-09-12T15:13:41;5.85;;;3.55;;
50429;SDS011;36359;41.556;-8.418;2023-09-12T15:16:06;6.90;;;3.67;;
50429;SDS011;36359;41.556;-8.418;2023-09-12T15:18:32;5.20;;;4.38;;
50429;SDS011;36359;41.556;-8.418;2023-09-12T15:21:00;6.88;;;3.40;;
50429;SDS011;36359;41.556;-8.418;2023-09-12T15:23:26;6.35;;;3.30;;
50429;SDS011;36359;41.556;-8.418;2023-09-12T15:25:53;7.20;;;3.72;;
50429;SDS011;36359;41.556;-8.418;2023-09-12T15:28:19;7.07;;;3.95;;